sensor_id;sensor_type;location;lat;lon;timestamp;P1;durP1;ratioP1;P2;durP2;ratioP2
46391;SDS011;32098;49.448;7.904;2023-11-21T00:01:14;2.13;;;0.90;;
46391;SDS011;32098;49.448;7.904;2023-11-21T00:03:43;2.80;;;0.90;;
46391;SDS011;32098;49.448;7.904;2023-11-21T00:06:10;1.03;;;0.87;;
46391;SDS011;32098;49.448;7.904;2023-11-21T00:08:37;1.60;;;0.63;;
46391;SDS011;32098;49.448;7.904;2023-11-21T00:11:04;1.97;;;0.87;;
46391;SDS011;32098;49.448;7.904;2023-11-21T00:13:32;2.00;;;0.93;;
46391;SDS011;32098;49.448;7.904;2023-11-21T00:15:59;2.50;;;1.00;;
46391;SDS011;32098;49.448;7.904;2023-11-21T00:18:26;1.50;;;1.00;;
46391;SDS011;32098;49.448;7.904;2023-11-21T00:20:52;3.03;;;0.67;;
46391;SDS011;32098;49.448;7.904;2023-11-21T00:23:19;3.93;;;0.80;;
46391;SDS011;32098;49.448;7.904;2023-11-21T00:25:45;2.20;;;0.80;;
46391;SDS011;32098;49.448;7.904;2023-11-21T00:28:12;2.70;;;0.87;;
46391;SDS011;32098;49.448;7.904;2023-11-21T00:30:39;2.57;;;0.90;;
46391;SDS011;32098;49.448;7.904;2023-11-21T00:33:06;1.83;;;0.80;;
46391;SDS011;32098;49.448;7.904;2023-11-21T00:35:33;2.40;;;0.87;;
46391;SDS011;32098;49.448;7.904;2023-11-21T00:37:59;0.70;;;0.70;;
46391;SDS011;32098;49.448;7.904;2023-11-21T00:40:26;1.00;;;0.60;;
46391;SDS011;32098;49.448;7.904;2023-11-21T00:42:53;1.07;;;0.90;;
46391;SDS011;32098;49.448;7.904;2023-11-21T00:45:20;1.80;;;0.70;;
46391;SDS011;32098;49.448;7.904;2023-11-21T00:47:46;0.80;;;0.50;;
46391;SDS011;32098;49.448;7.904;2023-11-21T00:50:13;1.30;;;0.80;;
46391;SDS011;32098;49.448;7.904;2023-11-21T00:52:40;1.10;;;0.80;;
46391;SDS011;32098;49.448;7.904;2023-11-21T00:55:07;1.83;;;0.90;;
46391;SDS011;32098;49.448;7.904;2023-11-21T00:57:34;2.17;;;0.90;;
46391;SDS011;32098;49.448;7.904;2023-11-21T01:00:02;1.93;;;0.80;;
46391;SDS011;32098;49.448;7.904;2023-11-21T01:02:34;3.00;;;0.80;;
46391;SDS011;32098;49.448;7.904;2023-11-21T01:05:02;1.43;;;0.80;;
46391;SDS011;32098;49.448;7.904;2023-11-21T01:07:30;1.20;;;0.87;;
46391;SDS011;32098;49.448;7.904;2023-11-21T01:09:56;2.63;;;0.93;;
46391;SDS011;32098;49.448;7.904;2023-11-21T01:12:23;1.37;;;0.70;;
46391;SDS011;32098;49.448;7.904;2023-11-21T01:14:51;2.27;;;0.93;;
46391;SDS011;32098;49.448;7.904;2023-11-21T01:17:18;2.33;;;0.83;;
46391;SDS011;32098;49.448;7.904;2023-11-21T01:19:45;1.97;;;0.70;;
46391;SDS011;32098;49.448;7.904;2023-11-21T01:22:12;2.00;;;0.90;;
46391;SDS011;32098;49.448;7.904;2023-11-21T01:24:38;1.40;;;1.10;;
46391;SDS011;32098;49.448;7.904;2023-11-21T01:27:05;1.33;;;0.80;;
46391;SDS011;32098;49.448;7.904;2023-11-21T01:29:32;2.67;;;1.00;;
46391;SDS011;32098;49.448;7.904;2023-11-21T01:31:59;1.47;;;0.90;;
46391;SDS011;32098;49.448;7.904;2023-11-21T01:34:26;1.73;;;1.00;;
46391;SDS011;32098;49.448;7.904;2023-11-21T01:36:53;2.23;;;1.03;;
46391;SDS011;32098;49.448;7.904;2023-11-21T01:39:19;1.27;;;0.80;;
46391;SDS011;32098;49.448;7.904;2023-11-21T01:41:50;1.10;;;0.80;;
46391;SDS011;32098;49.448;7.904;2023-11-21T01:44:18;0.70;;;0.70;;
46391;SDS011;32098;49.448;7.904;2023-11-21T01:46:45;1.03;;;0.73;;
46391;SDS011;32098;49.448;7.904;2023-11-21T01:49:16;1.70;;;0.80;;
46391;SDS011;32098;49.448;7.904;2023-11-21T01:51:45;1.53;;;0.90;;
46391;SDS011;32098;49.448;7.904;2023-11-21T01:54:15;1.63;;;1.00;;
46391;SDS011;32098;49.448;7.904;2023-11-21T01:56:46;2.17;;;0.90;;
46391;SDS011;32098;49.448;7.904;2023-11-21T01:59:20;1.00;;;0.90;;
46391;SDS011;32098;49.448;7.904;2023-11-21T02:01:50;3.37;;;0.80;;
46391;SDS011;32098;49.448;7.904;2023-11-21T02:04:18;1.10;;;1.00;;
46391;SDS011;32098;49.448;7.904;2023-11-21T02:06:44;0.70;;;0.70;;
46391;SDS011;32098;49.448;7.904;2023-11-21T02:09:11;0.80;;;0.80;;
46391;SDS011;32098;49.448;7.904;2023-11-21T02:11:41;3.90;;;1.03;;
46391;SDS011;32098;49.448;7.904;2023-11-21T02:14:08;1.07;;;0.90;;
46391;SDS011;32098;49.448;7.904;2023-11-21T02:16:36;2.57;;;1.07;;
46391;SDS011;32098;49.448;7.904;2023-11-21T02:19:03;1.70;;;0.90;;
46391;SDS011;32098;49.448;7.904;2023-11-21T02:21:36;1.77;;;1.00;;
46391;SDS011;32098;49.448;7.904;2023-11-21T02:24:07;3.17;;;1.00;;
46391;SDS011;32098;49.448;7.904;2023-11-21T02:26:34;2.03;;;1.03;;
46391;SDS011;32098;49.448;7.904;2023-11-21T02:29:01;1.60;;;1.10;;
46391;SDS011;32098;49.448;7.904;2023-11-21T02:31:30;1.50;;;1.00;;
46391;SDS011;32098;49.448;7.904;2023-11-21T02:34:00;2.10;;;1.00;;
46391;SDS011;32098;49.448;7.904;2023-11-21T02:36:26;2.90;;;1.10;;
46391;SDS011;32098;49.448;7.904;2023-11-21T02:38:53;1.77;;;1.23;;
46391;SDS011;32098;49.448;7.904;2023-11-21T02:41:19;3.60;;;1.40;;
46391;SDS011;32098;49.448;7.904;2023-11-21T02:43:46;2.17;;;1.30;;
46391;SDS011;32098;49.448;7.904;2023-11-21T02:46:13;2.50;;;1.20;;
46391;SDS011;32098;49.448;7.904;2023-11-21T02:48:39;2.00;;;1.67;;
46391;SDS011;32098;49.448;7.904;2023-11-21T02:51:06;3.77;;;1.50;;
46391;SDS011;32098;49.448;7.904;2023-11-21T02:53:33;3.43;;;1.37;;
46391;SDS011;32098;49.448;7.904;2023-11-21T02:56:00;2.83;;;1.33;;
46391;SDS011;32098;49.448;7.904;2023-11-21T02:58:27;1.77;;;1.47;;
46391;SDS011;32098;49.448;7.904;2023-11-21T03:00:54;5.03;;;1.53;;
46391;SDS011;32098;49.448;7.904;2023-11-21T03:03:20;2.53;;;1.27;;
46391;SDS011;32098;49.448;7.904;2023-11-21T03:05:47;1.63;;;1.30;;
46391;SDS011;32098;49.448;7.904;2023-11-21T03:08:14;2.33;;;1.90;;
46391;SDS011;32098;49.448;7.904;2023-11-21T03:10:41;1.97;;;1.53;;
46391;SDS011;32098;49.448;7.904;2023-11-21T03:13:07;2.20;;;1.53;;
46391;SDS011;32098;49.448;7.904;2023-11-21T03:15:34;2.90;;;1.70;;
46391;SDS011;32098;49.448;7.904;2023-11-21T03:18:02;2.87;;;1.50;;
46391;SDS011;32098;49.448;7.904;2023-11-21T03:20:31;2.80;;;1.70;;
46391;SDS011;32098;49.448;7.904;2023-11-21T03:22:58;2.27;;;1.50;;
46391;SDS011;32098;49.448;7.904;2023-11-21T03:25:26;2.40;;;1.50;;
46391;SDS011;32098;49.448;7.904;2023-11-21T03:27:52;3.03;;;1.40;;
46391;SDS011;32098;49.448;7.904;2023-11-21T03:30:19;2.40;;;1.50;;
46391;SDS011;32098;49.448;7.904;2023-11-21T03:32:47;1.60;;;1.33;;
46391;SDS011;32098;49.448;7.904;2023-11-21T03:35:14;3.20;;;1.50;;
46391;SDS011;32098;49.448;7.904;2023-11-21T03:37:41;2.30;;;1.40;;
46391;SDS011;32098;49.448;7.904;2023-11-21T03:40:09;1.80;;;1.60;;
46391;SDS011;32098;49.448;7.904;2023-11-21T03:42:36;1.80;;;1.63;;
46391;SDS011;32098;49.448;7.904;2023-11-21T03:45:04;3.63;;;1.80;;
46391;SDS011;32098;49.448;7.904;2023-11-21T03:47:31;2.50;;;1.97;;
46391;SDS011;32098;49.448;7.904;2023-11-21T03:49:58;19.93;;;13.63;;
46391;SDS011;32098;49.448;7.904;2023-11-21T03:52:25;9.17;;;7.20;;
46391;SDS011;32098;49.448;7.904;2023-11-21T03:54:53;4.53;;;3.47;;
46391;SDS011;32098;49.448;7.904;2023-11-21T03:57:21;2.30;;;2.07;;
46391;SDS011;32098;49.448;7.904;2023-11-21T03:59:48;1.90;;;1.67;;
46391;SDS011;32098;49.448;7.904;2023-11-21T04:02:15;2.80;;;1.87;;
46391;SDS011;32098;49.448;7.904;2023-11-21T04:04:44;2.57;;;1.90;;
46391;SDS011;32098;49.448;7.904;2023-11-21T04:07:10;4.00;;;2.10;;
46391;SDS011;32098;49.448;7.904;2023-11-21T04:09:37;2.23;;;1.87;;
46391;SDS011;32098;49.448;7.904;2023-11-21T04:12:04;4.63;;;2.60;;
46391;SDS011;32098;49.448;7.904;2023-11-21T04:14:31;3.63;;;2.47;;
46391;SDS011;32098;49.448;7.904;2023-11-21T04:17:01;2.30;;;2.10;;
46391;SDS011;32098;49.448;7.904;2023-11-21T04:19:28;3.00;;;2.20;;
46391;SDS011;32098;49.448;7.904;2023-11-21T04:21:54;2.90;;;2.10;;
46391;SDS011;32098;49.448;7.904;2023-11-21T04:24:21;3.37;;;1.90;;
46391;SDS011;32098;49.448;7.904;2023-11-21T04:26:48;2.33;;;2.10;;
46391;SDS011;32098;49.448;7.904;2023-11-21T04:29:14;2.43;;;2.10;;
46391;SDS011;32098;49.448;7.904;2023-11-21T04:31:41;2.37;;;1.90;;
46391;SDS011;32098;49.448;7.904;2023-11-21T04:34:08;1.83;;;1.63;;
46391;SDS011;32098;49.448;7.904;2023-11-21T04:36:34;1.90;;;1.70;;
46391;SDS011;32098;49.448;7.904;2023-11-21T04:39:01;2.10;;;1.70;;
46391;SDS011;32098;49.448;7.904;2023-11-21T04:41:27;1.90;;;1.70;;
46391;SDS011;32098;49.448;7.904;2023-11-21T04:43:54;4.17;;;1.90;;
46391;SDS011;32098;49.448;7.904;2023-11-21T04:46:21;2.40;;;1.93;;
46391;SDS011;32098;49.448;7.904;2023-11-21T04:48:48;2.13;;;1.90;;
46391;SDS011;32098;49.448;7.904;2023-11-21T04:51:15;4.13;;;1.90;;
46391;SDS011;32098;49.448;7.904;2023-11-21T04:53:41;1.97;;;1.60;;
46391;SDS011;32098;49.448;7.904;2023-11-21T04:56:08;1.57;;;1.47;;
46391;SDS011;32098;49.448;7.904;2023-11-21T04:58:35;1.80;;;1.70;;
46391;SDS011;32098;49.448;7.904;2023-11-21T05:01:02;2.13;;;1.30;;
46391;SDS011;32098;49.448;7.904;2023-11-21T05:03:33;2.50;;;1.40;;
46391;SDS011;32098;49.448;7.904;2023-11-21T05:06:01;1.87;;;1.10;;
46391;SDS011;32098;49.448;7.904;2023-11-21T05:08:27;1.10;;;1.03;;
46391;SDS011;32098;49.448;7.904;2023-11-21T05:10:54;2.20;;;1.20;;
46391;SDS011;32098;49.448;7.904;2023-11-21T05:13:22;1.43;;;0.87;;
46391;SDS011;32098;49.448;7.904;2023-11-21T05:15:54;2.73;;;1.07;;
46391;SDS011;32098;49.448;7.904;2023-11-21T05:18:23;1.20;;;1.10;;
46391;SDS011;32098;49.448;7.904;2023-11-21T05:20:49;1.20;;;1.10;;
46391;SDS011;32098;49.448;7.904;2023-11-21T05:23:16;1.93;;;1.07;;
46391;SDS011;32098;49.448;7.904;2023-11-21T05:25:43;1.20;;;0.90;;
46391;SDS011;32098;49.448;7.904;2023-11-21T05:28:09;4.13;;;0.87;;
46391;SDS011;32098;49.448;7.904;2023-11-21T05:30:36;1.03;;;0.87;;
46391;SDS011;32098;49.448;7.904;2023-11-21T05:33:05;1.67;;;0.77;;
46391;SDS011;32098;49.448;7.904;2023-11-21T05:35:32;1.27;;;0.70;;
46391;SDS011;32098;49.448;7.904;2023-11-21T05:37:58;1.17;;;1.07;;
46391;SDS011;32098;49.448;7.904;2023-11-21T05:40:25;0.80;;;0.80;;
46391;SDS011;32098;49.448;7.904;2023-11-21T05:42:55;1.00;;;0.90;;
46391;SDS011;32098;49.448;7.904;2023-11-21T05:45:22;1.57;;;0.80;;
46391;SDS011;32098;49.448;7.904;2023-11-21T05:47:49;1.10;;;1.00;;
46391;SDS011;32098;49.448;7.904;2023-11-21T05:50:17;1.03;;;0.80;;
46391;SDS011;32098;49.448;7.904;2023-11-21T05:52:45;1.40;;;0.93;;
46391;SDS011;32098;49.448;7.904;2023-11-21T05:55:13;1.00;;;0.87;;
46391;SDS011;32098;49.448;7.904;2023-11-21T05:57:40;5.17;;;1.83;;
46391;SDS011;32098;49.448;7.904;2023-11-21T06:00:14;1.50;;;1.27;;
46391;SDS011;32098;49.448;7.904;2023-11-21T06:02:48;1.30;;;1.10;;
46391;SDS011;32098;49.448;7.904;2023-11-21T06:05:17;0.80;;;0.80;;
46391;SDS011;32098;49.448;7.904;2023-11-21T06:07:45;0.90;;;0.90;;
46391;SDS011;32098;49.448;7.904;2023-11-21T06:10:12;0.93;;;0.83;;
46391;SDS011;32098;49.448;7.904;2023-11-21T06:12:40;1.10;;;1.00;;
46391;SDS011;32098;49.448;7.904;2023-11-21T06:15:09;1.30;;;1.10;;
46391;SDS011;32098;49.448;7.904;2023-11-21T06:17:40;1.37;;;1.27;;
46391;SDS011;32098;49.448;7.904;2023-11-21T06:20:09;2.20;;;1.20;;
46391;SDS011;32098;49.448;7.904;2023-11-21T06:22:44;2.70;;;1.20;;
46391;SDS011;32098;49.448;7.904;2023-11-21T06:25:12;2.50;;;1.30;;
46391;SDS011;32098;49.448;7.904;2023-11-21T06:27:40;1.27;;;1.10;;
46391;SDS011;32098;49.448;7.904;2023-11-21T06:30:08;2.20;;;1.47;;
46391;SDS011;32098;49.448;7.904;2023-11-21T06:32:36;3.47;;;1.30;;
46391;SDS011;32098;49.448;7.904;2023-11-21T06:35:07;2.23;;;1.73;;
46391;SDS011;32098;49.448;7.904;2023-11-21T06:37:36;7.87;;;5.80;;
46391;SDS011;32098;49.448;7.904;2023-11-21T06:40:03;4.80;;;4.30;;
46391;SDS011;32098;49.448;7.904;2023-11-21T06:42:30;3.53;;;3.03;;
46391;SDS011;32098;49.448;7.904;2023-11-21T06:44:57;2.70;;;2.50;;
46391;SDS011;32098;49.448;7.904;2023-11-21T06:47:25;2.10;;;1.90;;
46391;SDS011;32098;49.448;7.904;2023-11-21T06:49:52;3.60;;;2.30;;
46391;SDS011;32098;49.448;7.904;2023-11-21T06:52:19;4.00;;;2.63;;
46391;SDS011;32098;49.448;7.904;2023-11-21T06:54:47;16.03;;;10.70;;
46391;SDS011;32098;49.448;7.904;2023-11-21T06:57:14;11.63;;;9.30;;
46391;SDS011;32098;49.448;7.904;2023-11-21T06:59:40;9.50;;;6.40;;
46391;SDS011;32098;49.448;7.904;2023-11-21T07:02:07;7.17;;;4.93;;
46391;SDS011;32098;49.448;7.904;2023-11-21T07:04:36;6.03;;;4.07;;
46391;SDS011;32098;49.448;7.904;2023-11-21T07:07:03;5.37;;;3.23;;
46391;SDS011;32098;49.448;7.904;2023-11-21T07:09:30;3.70;;;2.47;;
46391;SDS011;32098;49.448;7.904;2023-11-21T07:11:57;5.67;;;3.00;;
46391;SDS011;32098;49.448;7.904;2023-11-21T07:14:24;3.23;;;2.10;;
46391;SDS011;32098;49.448;7.904;2023-11-21T07:16:50;3.63;;;1.90;;
46391;SDS011;32098;49.448;7.904;2023-11-21T07:19:19;4.57;;;2.20;;
46391;SDS011;32098;49.448;7.904;2023-11-21T07:21:48;1.50;;;1.40;;
46391;SDS011;32098;49.448;7.904;2023-11-21T07:24:17;1.57;;;1.47;;
46391;SDS011;32098;49.448;7.904;2023-11-21T07:26:44;4.10;;;1.63;;
46391;SDS011;32098;49.448;7.904;2023-11-21T07:29:11;2.00;;;1.60;;
46391;SDS011;32098;49.448;7.904;2023-11-21T07:31:38;1.77;;;1.47;;
46391;SDS011;32098;49.448;7.904;2023-11-21T07:34:05;2.27;;;1.90;;
46391;SDS011;32098;49.448;7.904;2023-11-21T07:36:32;2.00;;;1.70;;
46391;SDS011;32098;49.448;7.904;2023-11-21T07:38:58;4.63;;;2.00;;
46391;SDS011;32098;49.448;7.904;2023-11-21T07:41:25;2.37;;;2.00;;
46391;SDS011;32098;49.448;7.904;2023-11-21T07:43:57;2.73;;;1.93;;
46391;SDS011;32098;49.448;7.904;2023-11-21T07:46:25;3.60;;;2.33;;
46391;SDS011;32098;49.448;7.904;2023-11-21T07:48:53;4.13;;;2.00;;
46391;SDS011;32098;49.448;7.904;2023-11-21T07:51:21;2.87;;;1.90;;
46391;SDS011;32098;49.448;7.904;2023-11-21T07:53:48;2.50;;;2.10;;
46391;SDS011;32098;49.448;7.904;2023-11-21T07:56:16;4.33;;;2.10;;
46391;SDS011;32098;49.448;7.904;2023-11-21T07:58:42;2.73;;;2.00;;
46391;SDS011;32098;49.448;7.904;2023-11-21T08:01:09;4.40;;;3.00;;
46391;SDS011;32098;49.448;7.904;2023-11-21T08:03:37;6.90;;;2.57;;
46391;SDS011;32098;49.448;7.904;2023-11-21T08:06:04;3.27;;;2.13;;
46391;SDS011;32098;49.448;7.904;2023-11-21T08:08:31;2.80;;;2.47;;
46391;SDS011;32098;49.448;7.904;2023-11-21T08:10:59;2.53;;;2.30;;
46391;SDS011;32098;49.448;7.904;2023-11-21T08:13:28;4.83;;;2.40;;
46391;SDS011;32098;49.448;7.904;2023-11-21T08:15:57;3.73;;;2.80;;
46391;SDS011;32098;49.448;7.904;2023-11-21T08:18:29;5.30;;;3.33;;
46391;SDS011;32098;49.448;7.904;2023-11-21T08:20:56;4.50;;;3.07;;
46391;SDS011;32098;49.448;7.904;2023-11-21T08:23:23;3.83;;;3.03;;
46391;SDS011;32098;49.448;7.904;2023-11-21T08:25:53;5.00;;;3.17;;
46391;SDS011;32098;49.448;7.904;2023-11-21T08:28:20;4.70;;;3.33;;
46391;SDS011;32098;49.448;7.904;2023-11-21T08:30:52;5.20;;;3.70;;
46391;SDS011;32098;49.448;7.904;2023-11-21T08:33:20;6.00;;;3.47;;
46391;SDS011;32098;49.448;7.904;2023-11-21T08:35:47;4.43;;;3.73;;
46391;SDS011;32098;49.448;7.904;2023-11-21T08:38:14;5.03;;;3.67;;
46391;SDS011;32098;49.448;7.904;2023-11-21T08:40:41;4.80;;;3.37;;
46391;SDS011;32098;49.448;7.904;2023-11-21T08:43:08;5.00;;;3.17;;
46391;SDS011;32098;49.448;7.904;2023-11-21T08:45:34;6.47;;;3.70;;
46391;SDS011;32098;49.448;7.904;2023-11-21T08:48:01;5.10;;;3.57;;
46391;SDS011;32098;49.448;7.904;2023-11-21T08:50:28;3.93;;;3.33;;
46391;SDS011;32098;49.448;7.904;2023-11-21T08:52:55;5.40;;;3.83;;
46391;SDS011;32098;49.448;7.904;2023-11-21T08:55:22;5.37;;;4.20;;
46391;SDS011;32098;49.448;7.904;2023-11-21T08:57:49;6.30;;;4.87;;
46391;SDS011;32098;49.448;7.904;2023-11-21T09:00:17;5.27;;;4.20;;
46391;SDS011;32098;49.448;7.904;2023-11-21T09:02:45;4.77;;;2.87;;
46391;SDS011;32098;49.448;7.904;2023-11-21T09:05:13;3.10;;;2.80;;
46391;SDS011;32098;49.448;7.904;2023-11-21T09:07:41;4.50;;;3.33;;
46391;SDS011;32098;49.448;7.904;2023-11-21T09:10:08;3.83;;;2.97;;
46391;SDS011;32098;49.448;7.904;2023-11-21T09:12:36;4.30;;;3.10;;
46391;SDS011;32098;49.448;7.904;2023-11-21T09:15:06;5.63;;;3.57;;
46391;SDS011;32098;49.448;7.904;2023-11-21T09:17:34;3.53;;;3.00;;
46391;SDS011;32098;49.448;7.904;2023-11-21T09:20:01;7.97;;;3.43;;
46391;SDS011;32098;49.448;7.904;2023-11-21T09:22:32;5.00;;;3.10;;
46391;SDS011;32098;49.448;7.904;2023-11-21T09:24:58;4.27;;;3.30;;
46391;SDS011;32098;49.448;7.904;2023-11-21T09:27:25;3.80;;;3.37;;
46391;SDS011;32098;49.448;7.904;2023-11-21T09:29:52;5.17;;;3.10;;
46391;SDS011;32098;49.448;7.904;2023-11-21T09:32:19;4.37;;;3.20;;
46391;SDS011;32098;49.448;7.904;2023-11-21T09:34:48;3.67;;;3.23;;
46391;SDS011;32098;49.448;7.904;2023-11-21T09:37:16;3.50;;;3.10;;
46391;SDS011;32098;49.448;7.904;2023-11-21T09:39:43;3.73;;;3.20;;
46391;SDS011;32098;49.448;7.904;2023-11-21T09:42:10;4.27;;;2.97;;
46391;SDS011;32098;49.448;7.904;2023-11-21T09:44:46;4.00;;;3.47;;
46391;SDS011;32098;49.448;7.904;2023-11-21T09:47:25;4.67;;;3.73;;
46391;SDS011;32098;49.448;7.904;2023-11-21T09:49:53;3.90;;;3.33;;
46391;SDS011;32098;49.448;7.904;2023-11-21T09:52:22;6.73;;;3.53;;
46391;SDS011;32098;49.448;7.904;2023-11-21T09:54:52;5.03;;;3.30;;
46391;SDS011;32098;49.448;7.904;2023-11-21T09:57:20;5.60;;;3.83;;
46391;SDS011;32098;49.448;7.904;2023-11-21T09:59:51;3.83;;;3.07;;
46391;SDS011;32098;49.448;7.904;2023-11-21T10:02:22;3.53;;;2.50;;
46391;SDS011;32098;49.448;7.904;2023-11-21T10:04:52;3.20;;;2.57;;
46391;SDS011;32098;49.448;7.904;2023-11-21T10:07:19;3.00;;;2.63;;
46391;SDS011;32098;49.448;7.904;2023-11-21T10:09:47;3.03;;;2.73;;
46391;SDS011;32098;49.448;7.904;2023-11-21T10:12:16;3.30;;;2.30;;
46391;SDS011;32098;49.448;7.904;2023-11-21T10:14:43;3.87;;;2.90;;
46391;SDS011;32098;49.448;7.904;2023-11-21T10:17:15;2.33;;;2.13;;
46391;SDS011;32098;49.448;7.904;2023-11-21T10:19:47;3.93;;;2.37;;
46391;SDS011;32098;49.448;7.904;2023-11-21T10:22:15;3.03;;;2.10;;
46391;SDS011;32098;49.448;7.904;2023-11-21T10:24:42;4.27;;;2.30;;
46391;SDS011;32098;49.448;7.904;2023-11-21T10:27:19;2.27;;;2.00;;
46391;SDS011;32098;49.448;7.904;2023-11-21T10:29:45;2.97;;;2.00;;
46391;SDS011;32098;49.448;7.904;2023-11-21T10:32:12;3.17;;;2.40;;
46391;SDS011;32098;49.448;7.904;2023-11-21T10:34:39;4.17;;;2.30;;
46391;SDS011;32098;49.448;7.904;2023-11-21T10:37:11;3.43;;;2.40;;
46391;SDS011;32098;49.448;7.904;2023-11-21T10:39:38;5.37;;;2.73;;
46391;SDS011;32098;49.448;7.904;2023-11-21T10:42:07;3.73;;;3.07;;
46391;SDS011;32098;49.448;7.904;2023-11-21T10:44:36;3.97;;;2.90;;
46391;SDS011;32098;49.448;7.904;2023-11-21T10:47:04;3.00;;;2.70;;
46391;SDS011;32098;49.448;7.904;2023-11-21T10:49:31;3.20;;;2.90;;
46391;SDS011;32098;49.448;7.904;2023-11-21T10:51:59;3.43;;;2.70;;
46391;SDS011;32098;49.448;7.904;2023-11-21T10:54:26;3.03;;;2.50;;
46391;SDS011;32098;49.448;7.904;2023-11-21T10:56:53;3.87;;;2.20;;
46391;SDS011;32098;49.448;7.904;2023-11-21T10:59:23;3.13;;;2.53;;
46391;SDS011;32098;49.448;7.904;2023-11-21T11:01:51;3.77;;;2.10;;
46391;SDS011;32098;49.448;7.904;2023-11-21T11:04:19;3.93;;;2.20;;
46391;SDS011;32098;49.448;7.904;2023-11-21T11:06:49;2.87;;;2.10;;
46391;SDS011;32098;49.448;7.904;2023-11-21T11:09:20;2.90;;;2.10;;
46391;SDS011;32098;49.448;7.904;2023-11-21T11:11:47;3.80;;;2.30;;
46391;SDS011;32098;49.448;7.904;2023-11-21T11:14:15;3.13;;;2.40;;
46391;SDS011;32098;49.448;7.904;2023-11-21T11:16:43;5.80;;;2.63;;
46391;SDS011;32098;49.448;7.904;2023-11-21T11:19:09;4.37;;;2.73;;
46391;SDS011;32098;49.448;7.904;2023-11-21T11:21:43;3.53;;;2.40;;
46391;SDS011;32098;49.448;7.904;2023-11-21T11:24:21;5.60;;;3.10;;
46391;SDS011;32098;49.448;7.904;2023-11-21T11:26:58;3.50;;;2.30;;
46391;SDS011;32098;49.448;7.904;2023-11-21T11:32:13;2.50;;;1.73;;
46391;SDS011;32098;49.448;7.904;2023-11-21T11:34:53;4.33;;;2.20;;
46391;SDS011;32098;49.448;7.904;2023-11-21T11:37:25;3.40;;;2.30;;
46391;SDS011;32098;49.448;7.904;2023-11-21T11:39:52;4.03;;;2.10;;
46391;SDS011;32098;49.448;7.904;2023-11-21T11:42:21;4.87;;;2.30;;
46391;SDS011;32098;49.448;7.904;2023-11-21T11:44:50;5.23;;;2.30;;
46391;SDS011;32098;49.448;7.904;2023-11-21T11:47:20;5.10;;;1.77;;
46391;SDS011;32098;49.448;7.904;2023-11-21T11:52:50;4.63;;;1.80;;
46391;SDS011;32098;49.448;7.904;2023-11-21T11:55:21;4.47;;;1.80;;
46391;SDS011;32098;49.448;7.904;2023-11-21T11:57:50;4.13;;;1.80;;
46391;SDS011;32098;49.448;7.904;2023-11-21T12:00:19;3.00;;;1.80;;
46391;SDS011;32098;49.448;7.904;2023-11-21T12:02:52;3.87;;;1.70;;
46391;SDS011;32098;49.448;7.904;2023-11-21T12:05:20;2.90;;;1.47;;
46391;SDS011;32098;49.448;7.904;2023-11-21T12:07:51;2.83;;;1.80;;
46391;SDS011;32098;49.448;7.904;2023-11-21T12:10:21;4.33;;;1.67;;
46391;SDS011;32098;49.448;7.904;2023-11-21T12:12:51;2.37;;;1.47;;
46391;SDS011;32098;49.448;7.904;2023-11-21T12:15:20;3.37;;;1.90;;
46391;SDS011;32098;49.448;7.904;2023-11-21T12:17:48;4.90;;;2.03;;
46391;SDS011;32098;49.448;7.904;2023-11-21T12:20:18;3.23;;;1.80;;
46391;SDS011;32098;49.448;7.904;2023-11-21T12:22:46;3.67;;;1.60;;
46391;SDS011;32098;49.448;7.904;2023-11-21T12:25:18;3.13;;;1.70;;
46391;SDS011;32098;49.448;7.904;2023-11-21T12:27:49;4.03;;;2.10;;
46391;SDS011;32098;49.448;7.904;2023-11-21T12:30:21;5.97;;;2.00;;
46391;SDS011;32098;49.448;7.904;2023-11-21T12:32:49;1.60;;;1.37;;
46391;SDS011;32098;49.448;7.904;2023-11-21T12:35:20;3.37;;;1.60;;
46391;SDS011;32098;49.448;7.904;2023-11-21T12:37:48;8.57;;;1.80;;
46391;SDS011;32098;49.448;7.904;2023-11-21T12:40:20;4.80;;;1.70;;
46391;SDS011;32098;49.448;7.904;2023-11-21T12:42:53;5.60;;;1.70;;
46391;SDS011;32098;49.448;7.904;2023-11-21T12:45:21;5.33;;;1.67;;
46391;SDS011;32098;49.448;7.904;2023-11-21T12:47:56;3.43;;;1.80;;
46391;SDS011;32098;49.448;7.904;2023-11-21T12:50:27;5.20;;;2.00;;
46391;SDS011;32098;49.448;7.904;2023-11-21T12:52:58;3.73;;;1.77;;
46391;SDS011;32098;49.448;7.904;2023-11-21T12:55:29;4.10;;;1.60;;
46391;SDS011;32098;49.448;7.904;2023-11-21T12:57:57;3.87;;;1.67;;
46391;SDS011;32098;49.448;7.904;2023-11-21T13:00:34;5.70;;;2.10;;
46391;SDS011;32098;49.448;7.904;2023-11-21T13:03:04;4.13;;;1.60;;
46391;SDS011;32098;49.448;7.904;2023-11-21T13:05:38;4.43;;;1.80;;
46391;SDS011;32098;49.448;7.904;2023-11-21T13:08:08;4.47;;;1.90;;
46391;SDS011;32098;49.448;7.904;2023-11-21T13:10:43;4.30;;;1.90;;
46391;SDS011;32098;49.448;7.904;2023-11-21T13:13:13;3.30;;;1.80;;
46391;SDS011;32098;49.448;7.904;2023-11-21T13:15:50;4.60;;;1.77;;
46391;SDS011;32098;49.448;7.904;2023-11-21T13:18:19;5.53;;;1.80;;
46391;SDS011;32098;49.448;7.904;2023-11-21T13:20:48;5.23;;;1.80;;
46391;SDS011;32098;49.448;7.904;2023-11-21T13:23:16;2.83;;;1.80;;
46391;SDS011;32098;49.448;7.904;2023-11-21T13:25:45;3.53;;;1.80;;
46391;SDS011;32098;49.448;7.904;2023-11-21T13:28:23;5.03;;;1.90;;
46391;SDS011;32098;49.448;7.904;2023-11-21T13:30:53;5.63;;;1.87;;
46391;SDS011;32098;49.448;7.904;2023-11-21T13:33:19;3.17;;;1.60;;
46391;SDS011;32098;49.448;7.904;2023-11-21T13:35:53;2.40;;;1.60;;
46391;SDS011;32098;49.448;7.904;2023-11-21T13:38:22;4.73;;;1.80;;
46391;SDS011;32098;49.448;7.904;2023-11-21T13:40:51;3.87;;;1.97;;
46391;SDS011;32098;49.448;7.904;2023-11-21T13:43:24;3.73;;;1.50;;
46391;SDS011;32098;49.448;7.904;2023-11-21T13:45:53;2.80;;;1.70;;
46391;SDS011;32098;49.448;7.904;2023-11-21T13:48:27;4.37;;;2.00;;
46391;SDS011;32098;49.448;7.904;2023-11-21T13:51:15;5.17;;;1.60;;
46391;SDS011;32098;49.448;7.904;2023-11-21T13:53:44;6.57;;;1.67;;
46391;SDS011;32098;49.448;7.904;2023-11-21T13:56:17;5.97;;;2.87;;
46391;SDS011;32098;49.448;7.904;2023-11-21T13:58:48;4.40;;;2.00;;
46391;SDS011;32098;49.448;7.904;2023-11-21T14:01:26;3.83;;;1.87;;
46391;SDS011;32098;49.448;7.904;2023-11-21T14:04:00;3.37;;;1.70;;
46391;SDS011;32098;49.448;7.904;2023-11-21T14:06:38;2.77;;;1.33;;
46391;SDS011;32098;49.448;7.904;2023-11-21T14:09:15;4.90;;;1.67;;
46391;SDS011;32098;49.448;7.904;2023-11-21T14:11:49;3.33;;;1.63;;
46391;SDS011;32098;49.448;7.904;2023-11-21T14:14:19;3.77;;;1.53;;
46391;SDS011;32098;49.448;7.904;2023-11-21T14:16:47;4.17;;;2.07;;
46391;SDS011;32098;49.448;7.904;2023-11-21T14:19:14;4.10;;;1.83;;
46391;SDS011;32098;49.448;7.904;2023-11-21T14:21:46;4.33;;;2.10;;
46391;SDS011;32098;49.448;7.904;2023-11-21T14:24:14;2.40;;;1.90;;
46391;SDS011;32098;49.448;7.904;2023-11-21T14:26:45;2.47;;;1.90;;
46391;SDS011;32098;49.448;7.904;2023-11-21T14:29:14;3.03;;;2.20;;
46391;SDS011;32098;49.448;7.904;2023-11-21T14:31:46;3.27;;;1.67;;
46391;SDS011;32098;49.448;7.904;2023-11-21T14:34:13;6.20;;;2.00;;
46391;SDS011;32098;49.448;7.904;2023-11-21T14:36:43;3.80;;;2.00;;
46391;SDS011;32098;49.448;7.904;2023-11-21T14:39:11;4.37;;;2.13;;
46391;SDS011;32098;49.448;7.904;2023-11-21T14:41:52;6.10;;;2.50;;
46391;SDS011;32098;49.448;7.904;2023-11-21T14:44:22;3.60;;;2.70;;
46391;SDS011;32098;49.448;7.904;2023-11-21T14:46:54;5.97;;;3.30;;
46391;SDS011;32098;49.448;7.904;2023-11-21T14:49:24;5.60;;;3.50;;
46391;SDS011;32098;49.448;7.904;2023-11-21T14:51:54;4.13;;;2.90;;
46391;SDS011;32098;49.448;7.904;2023-11-21T14:54:30;5.47;;;3.13;;
46391;SDS011;32098;49.448;7.904;2023-11-21T14:57:12;5.73;;;3.30;;
46391;SDS011;32098;49.448;7.904;2023-11-21T14:59:45;6.37;;;3.10;;
46391;SDS011;32098;49.448;7.904;2023-11-21T15:02:15;5.97;;;3.80;;